Keene, Ohio
Current Conditions -  °F | °C
As of 4:53 PM on Saturday 20 Dec 2014 (Local Time) from KPHD Reporting Station
Overcast Overcast  
Wind Chill: 32°   Ceiling: 2900
Heat Index: 32°   Visibility: 10mi
Dew Point: 20°   Wind: 0mph
Humidity: 61%   Direction: NA
Pressure: 30.26"   Gusts: NA
Location:  40.35°N, 81.87°W
Report Text: KPHD 202153Z AUTO 00000KT 10SM OVC029 00/M07 A3026 RMK AO2 SLP258 T00001067
Loading
Personal Weather Stations






























Interactive Weather Map New forecast layout! Learn more

10-Day Weather Forecast

Advertisements
Track Severe Weather on mobile